sensor_id;sensor_type;location;lat;lon;timestamp;temperature;humidity
20698;DHT22;10508;50.956;4.640;2022-11-18T00:01:29;9.70;99.90
20698;DHT22;10508;50.956;4.640;2022-11-18T00:03:55;9.70;99.90
20698;DHT22;10508;50.956;4.640;2022-11-18T00:06:23;9.80;99.90
20698;DHT22;10508;50.956;4.640;2022-11-18T00:08:49;9.80;99.90
20698;DHT22;10508;50.956;4.640;2022-11-18T00:11:18;9.80;99.90
20698;DHT22;10508;50.956;4.640;2022-11-18T00:14:14;9.80;99.90
20698;DHT22;10508;50.956;4.640;2022-11-18T00:19:13;9.90;99.90
20698;DHT22;10508;50.956;4.640;2022-11-18T00:21:39;9.80;99.90
20698;DHT22;10508;50.956;4.640;2022-11-18T00:24:05;9.90;99.90
20698;DHT22;10508;50.956;4.640;2022-11-18T00:26:31;9.80;99.90
20698;DHT22;10508;50.956;4.640;2022-11-18T00:28:56;9.80;99.90
20698;DHT22;10508;50.956;4.640;2022-11-18T00:31:22;9.80;99.90
20698;DHT22;10508;50.956;4.640;2022-11-18T00:33:47;9.80;99.90
20698;DHT22;10508;50.956;4.640;2022-11-18T00:36:13;9.80;99.90
20698;DHT22;10508;50.956;4.640;2022-11-18T00:38:39;9.80;99.90
20698;DHT22;10508;50.956;4.640;2022-11-18T00:41:12;9.80;99.90
20698;DHT22;10508;50.956;4.640;2022-11-18T00:43:39;9.80;99.90
20698;DHT22;10508;50.956;4.640;2022-11-18T00:46:07;9.80;99.90
20698;DHT22;10508;50.956;4.640;2022-11-18T00:48:34;9.80;99.90
20698;DHT22;10508;50.956;4.640;2022-11-18T00:51:14;9.80;99.90
20698;DHT22;10508;50.956;4.640;2022-11-18T00:53:40;9.80;99.90
20698;DHT22;10508;50.956;4.640;2022-11-18T00:56:06;9.80;99.90
20698;DHT22;10508;50.956;4.640;2022-11-18T00:58:32;9.80;99.90
20698;DHT22;10508;50.956;4.640;2022-11-18T01:00:58;9.90;99.90
20698;DHT22;10508;50.956;4.640;2022-11-18T01:03:23;9.90;99.90
20698;DHT22;10508;50.956;4.640;2022-11-18T01:05:50;9.90;99.90
20698;DHT22;10508;50.956;4.640;2022-11-18T01:08:16;9.80;99.90
20698;DHT22;10508;50.956;4.640;2022-11-18T01:10:43;9.80;99.90
20698;DHT22;10508;50.956;4.640;2022-11-18T01:13:14;9.90;99.90
20698;DHT22;10508;50.956;4.640;2022-11-18T01:15:55;9.90;99.90
20698;DHT22;10508;50.956;4.640;2022-11-18T01:18:24;9.90;99.90
20698;DHT22;10508;50.956;4.640;2022-11-18T01:20:50;9.90;99.90
20698;DHT22;10508;50.956;4.640;2022-11-18T01:23:17;9.90;99.90
20698;DHT22;10508;50.956;4.640;2022-11-18T01:25:44;9.90;99.90
20698;DHT22;10508;50.956;4.640;2022-11-18T01:28:11;9.90;99.90
20698;DHT22;10508;50.956;4.640;2022-11-18T01:30:38;9.80;99.90
20698;DHT22;10508;50.956;4.640;2022-11-18T01:33:05;9.80;99.90
20698;DHT22;10508;50.956;4.640;2022-11-18T01:35:35;9.80;99.90
20698;DHT22;10508;50.956;4.640;2022-11-18T01:38:01;9.80;99.90
20698;DHT22;10508;50.956;4.640;2022-11-18T01:40:27;9.70;99.90
20698;DHT22;10508;50.956;4.640;2022-11-18T01:42:54;9.80;99.90
20698;DHT22;10508;50.956;4.640;2022-11-18T01:45:31;9.80;99.90
20698;DHT22;10508;50.956;4.640;2022-11-18T01:48:06;9.80;99.90
20698;DHT22;10508;50.956;4.640;2022-11-18T01:50:40;9.70;99.90
20698;DHT22;10508;50.956;4.640;2022-11-18T01:53:12;9.70;99.90
20698;DHT22;10508;50.956;4.640;2022-11-18T01:55:42;9.70;99.90
20698;DHT22;10508;50.956;4.640;2022-11-18T01:58:14;9.70;99.90
20698;DHT22;10508;50.956;4.640;2022-11-18T02:00:42;9.70;99.90
20698;DHT22;10508;50.956;4.640;2022-11-18T02:03:08;9.60;99.90
20698;DHT22;10508;50.956;4.640;2022-11-18T02:05:34;9.60;99.90
20698;DHT22;10508;50.956;4.640;2022-11-18T02:08:09;9.60;99.90
20698;DHT22;10508;50.956;4.640;2022-11-18T02:10:34;9.50;99.90
20698;DHT22;10508;50.956;4.640;2022-11-18T02:13:00;9.40;99.90
20698;DHT22;10508;50.956;4.640;2022-11-18T02:15:42;9.40;99.90
20698;DHT22;10508;50.956;4.640;2022-11-18T02:18:44;9.30;99.90
20698;DHT22;10508;50.956;4.640;2022-11-18T02:21:56;9.30;99.90
20698;DHT22;10508;50.956;4.640;2022-11-18T02:24:45;9.20;99.90
20698;DHT22;10508;50.956;4.640;2022-11-18T02:30:05;9.30;99.90
20698;DHT22;10508;50.956;4.640;2022-11-18T02:32:54;9.40;99.90
20698;DHT22;10508;50.956;4.640;2022-11-18T02:35:51;9.40;99.90
20698;DHT22;10508;50.956;4.640;2022-11-18T02:38:26;9.40;99.90
20698;DHT22;10508;50.956;4.640;2022-11-18T02:41:01;9.40;99.90
20698;DHT22;10508;50.956;4.640;2022-11-18T02:43:48;9.40;99.90
20698;DHT22;10508;50.956;4.640;2022-11-18T02:46:37;9.30;99.90
20698;DHT22;10508;50.956;4.640;2022-11-18T02:49:09;9.30;99.90
20698;DHT22;10508;50.956;4.640;2022-11-18T02:51:36;9.20;99.90
20698;DHT22;10508;50.956;4.640;2022-11-18T02:54:05;9.20;99.90
20698;DHT22;10508;50.956;4.640;2022-11-18T02:56:51;9.20;99.90
20698;DHT22;10508;50.956;4.640;2022-11-18T02:59:18;9.20;99.90
20698;DHT22;10508;50.956;4.640;2022-11-18T03:01:45;9.10;99.90
20698;DHT22;10508;50.956;4.640;2022-11-18T03:04:12;9.10;99.90
20698;DHT22;10508;50.956;4.640;2022-11-18T03:06:47;9.10;99.90
20698;DHT22;10508;50.956;4.640;2022-11-18T03:09:36;9.10;99.90
20698;DHT22;10508;50.956;4.640;2022-11-18T03:25:28;8.90;99.90
20698;DHT22;10508;50.956;4.640;2022-11-18T03:30:22;8.80;99.90
20698;DHT22;10508;50.956;4.640;2022-11-18T03:33:13;8.80;99.90
20698;DHT22;10508;50.956;4.640;2022-11-18T03:35:44;8.80;99.90
20698;DHT22;10508;50.956;4.640;2022-11-18T03:38:14;8.80;99.90
20698;DHT22;10508;50.956;4.640;2022-11-18T03:41:03;8.70;99.90
20698;DHT22;10508;50.956;4.640;2022-11-18T03:43:34;8.70;99.90
20698;DHT22;10508;50.956;4.640;2022-11-18T03:48:49;8.60;99.90
20698;DHT22;10508;50.956;4.640;2022-11-18T03:51:30;8.60;99.90
20698;DHT22;10508;50.956;4.640;2022-11-18T03:54:02;8.50;99.90
20698;DHT22;10508;50.956;4.640;2022-11-18T03:56:34;8.40;99.90
20698;DHT22;10508;50.956;4.640;2022-11-18T03:59:12;8.30;99.90
20698;DHT22;10508;50.956;4.640;2022-11-18T04:01:56;8.30;99.90
20698;DHT22;10508;50.956;4.640;2022-11-18T04:04:25;8.20;99.90
20698;DHT22;10508;50.956;4.640;2022-11-18T04:09:37;8.00;99.90
20698;DHT22;10508;50.956;4.640;2022-11-18T04:12:09;8.00;99.90
20698;DHT22;10508;50.956;4.640;2022-11-18T04:14:37;8.00;99.90
20698;DHT22;10508;50.956;4.640;2022-11-18T04:17:19;8.00;99.90
20698;DHT22;10508;50.956;4.640;2022-11-18T04:19:44;8.00;99.90
20698;DHT22;10508;50.956;4.640;2022-11-18T04:22:16;7.90;99.90
20698;DHT22;10508;50.956;4.640;2022-11-18T04:24:43;7.90;99.90
20698;DHT22;10508;50.956;4.640;2022-11-18T04:27:28;7.90;99.90
20698;DHT22;10508;50.956;4.640;2022-11-18T04:29:53;7.90;99.90
20698;DHT22;10508;50.956;4.640;2022-11-18T04:32:19;7.90;99.90
20698;DHT22;10508;50.956;4.640;2022-11-18T04:34:44;7.80;99.90
20698;DHT22;10508;50.956;4.640;2022-11-18T04:37:10;7.90;99.90
20698;DHT22;10508;50.956;4.640;2022-11-18T04:39:36;7.90;99.90
20698;DHT22;10508;50.956;4.640;2022-11-18T04:42:01;7.80;99.90
20698;DHT22;10508;50.956;4.640;2022-11-18T04:44:29;7.80;99.90
20698;DHT22;10508;50.956;4.640;2022-11-18T04:46:56;8.00;99.90
20698;DHT22;10508;50.956;4.640;2022-11-18T04:49:22;7.90;99.90
20698;DHT22;10508;50.956;4.640;2022-11-18T04:51:49;7.90;99.90
20698;DHT22;10508;50.956;4.640;2022-11-18T04:54:15;7.90;99.90
20698;DHT22;10508;50.956;4.640;2022-11-18T04:56:41;7.90;99.90
20698;DHT22;10508;50.956;4.640;2022-11-18T04:59:07;7.90;99.90
20698;DHT22;10508;50.956;4.640;2022-11-18T05:01:33;7.80;99.90
20698;DHT22;10508;50.956;4.640;2022-11-18T05:04:00;7.80;99.90
20698;DHT22;10508;50.956;4.640;2022-11-18T05:06:27;7.80;99.90
20698;DHT22;10508;50.956;4.640;2022-11-18T05:08:52;7.80;99.90
20698;DHT22;10508;50.956;4.640;2022-11-18T05:11:18;7.80;99.90
20698;DHT22;10508;50.956;4.640;2022-11-18T05:14:03;7.90;99.90
20698;DHT22;10508;50.956;4.640;2022-11-18T05:16:28;7.80;99.90
20698;DHT22;10508;50.956;4.640;2022-11-18T05:18:54;7.80;99.90
20698;DHT22;10508;50.956;4.640;2022-11-18T05:21:20;7.70;99.90
20698;DHT22;10508;50.956;4.640;2022-11-18T05:23:45;7.70;99.90
20698;DHT22;10508;50.956;4.640;2022-11-18T05:26:11;7.70;99.90
20698;DHT22;10508;50.956;4.640;2022-11-18T05:28:37;7.70;99.90
20698;DHT22;10508;50.956;4.640;2022-11-18T05:31:08;7.80;99.90
20698;DHT22;10508;50.956;4.640;2022-11-18T05:33:34;7.70;99.90
20698;DHT22;10508;50.956;4.640;2022-11-18T05:36:11;7.70;99.90
20698;DHT22;10508;50.956;4.640;2022-11-18T05:38:37;7.70;99.90
20698;DHT22;10508;50.956;4.640;2022-11-18T05:41:03;7.60;99.90
20698;DHT22;10508;50.956;4.640;2022-11-18T05:43:29;7.70;99.90
20698;DHT22;10508;50.956;4.640;2022-11-18T05:45:56;7.70;99.90
20698;DHT22;10508;50.956;4.640;2022-11-18T05:48:22;7.70;99.90
20698;DHT22;10508;50.956;4.640;2022-11-18T05:50:49;7.70;99.90
20698;DHT22;10508;50.956;4.640;2022-11-18T05:53:17;7.70;99.90
20698;DHT22;10508;50.956;4.640;2022-11-18T05:58:30;7.80;99.90
20698;DHT22;10508;50.956;4.640;2022-11-18T06:01:00;7.80;99.90
20698;DHT22;10508;50.956;4.640;2022-11-18T06:03:28;7.80;99.90
20698;DHT22;10508;50.956;4.640;2022-11-18T06:05:56;7.80;99.90
20698;DHT22;10508;50.956;4.640;2022-11-18T06:08:25;7.70;99.90
20698;DHT22;10508;50.956;4.640;2022-11-18T06:10:53;7.70;99.90
20698;DHT22;10508;50.956;4.640;2022-11-18T06:13:23;7.60;99.90
20698;DHT22;10508;50.956;4.640;2022-11-18T06:15:50;7.60;99.90
20698;DHT22;10508;50.956;4.640;2022-11-18T06:18:22;7.70;99.90
20698;DHT22;10508;50.956;4.640;2022-11-18T06:20:51;7.70;99.90
20698;DHT22;10508;50.956;4.640;2022-11-18T06:23:17;7.70;99.90
20698;DHT22;10508;50.956;4.640;2022-11-18T06:25:43;7.70;99.90
20698;DHT22;10508;50.956;4.640;2022-11-18T06:28:11;7.70;99.90
20698;DHT22;10508;50.956;4.640;2022-11-18T06:30:38;7.70;99.90
20698;DHT22;10508;50.956;4.640;2022-11-18T06:33:04;7.70;99.90
20698;DHT22;10508;50.956;4.640;2022-11-18T06:35:29;7.70;99.90
20698;DHT22;10508;50.956;4.640;2022-11-18T06:37:55;7.70;99.90
20698;DHT22;10508;50.956;4.640;2022-11-18T06:40:20;7.60;99.90
20698;DHT22;10508;50.956;4.640;2022-11-18T06:42:46;7.70;99.90
20698;DHT22;10508;50.956;4.640;2022-11-18T06:45:30;7.70;99.90
20698;DHT22;10508;50.956;4.640;2022-11-18T06:47:57;7.70;99.90
20698;DHT22;10508;50.956;4.640;2022-11-18T06:50:23;7.70;99.90
20698;DHT22;10508;50.956;4.640;2022-11-18T06:52:48;7.70;99.90
20698;DHT22;10508;50.956;4.640;2022-11-18T06:55:14;7.70;99.90
20698;DHT22;10508;50.956;4.640;2022-11-18T06:57:39;7.70;99.90
20698;DHT22;10508;50.956;4.640;2022-11-18T07:00:06;7.60;99.90
20698;DHT22;10508;50.956;4.640;2022-11-18T07:02:31;7.70;99.90
20698;DHT22;10508;50.956;4.640;2022-11-18T07:05:00;7.60;99.90
20698;DHT22;10508;50.956;4.640;2022-11-18T07:07:25;7.70;99.90
20698;DHT22;10508;50.956;4.640;2022-11-18T07:09:51;7.70;99.90
20698;DHT22;10508;50.956;4.640;2022-11-18T07:12:17;7.70;99.90
20698;DHT22;10508;50.956;4.640;2022-11-18T07:14:42;7.70;99.90
20698;DHT22;10508;50.956;4.640;2022-11-18T07:17:08;7.60;99.90
20698;DHT22;10508;50.956;4.640;2022-11-18T07:19:33;7.60;99.90
20698;DHT22;10508;50.956;4.640;2022-11-18T07:21:59;7.70;99.90
20698;DHT22;10508;50.956;4.640;2022-11-18T07:24:25;7.70;99.90
20698;DHT22;10508;50.956;4.640;2022-11-18T07:26:52;7.70;99.90
20698;DHT22;10508;50.956;4.640;2022-11-18T07:29:18;7.70;99.90
20698;DHT22;10508;50.956;4.640;2022-11-18T07:31:44;7.80;99.90
20698;DHT22;10508;50.956;4.640;2022-11-18T07:34:11;7.80;99.90
20698;DHT22;10508;50.956;4.640;2022-11-18T07:36:37;7.80;99.90
20698;DHT22;10508;50.956;4.640;2022-11-18T07:39:04;8.00;99.90
20698;DHT22;10508;50.956;4.640;2022-11-18T07:41:31;8.00;99.90
20698;DHT22;10508;50.956;4.640;2022-11-18T07:43:59;8.10;99.90
20698;DHT22;10508;50.956;4.640;2022-11-18T07:46:30;8.10;99.90
20698;DHT22;10508;50.956;4.640;2022-11-18T07:48:57;8.20;99.90
20698;DHT22;10508;50.956;4.640;2022-11-18T07:51:26;8.30;99.90
20698;DHT22;10508;50.956;4.640;2022-11-18T07:53:52;8.40;99.90
20698;DHT22;10508;50.956;4.640;2022-11-18T07:56:19;8.50;99.90
20698;DHT22;10508;50.956;4.640;2022-11-18T07:58:45;8.60;99.90
20698;DHT22;10508;50.956;4.640;2022-11-18T08:01:19;8.60;99.90
20698;DHT22;10508;50.956;4.640;2022-11-18T08:03:45;8.70;99.90
20698;DHT22;10508;50.956;4.640;2022-11-18T08:06:13;8.70;99.90
20698;DHT22;10508;50.956;4.640;2022-11-18T08:08:39;8.70;99.90
20698;DHT22;10508;50.956;4.640;2022-11-18T08:11:07;8.80;99.90
20698;DHT22;10508;50.956;4.640;2022-11-18T08:13:34;8.70;99.90
20698;DHT22;10508;50.956;4.640;2022-11-18T08:16:00;8.80;99.90
20698;DHT22;10508;50.956;4.640;2022-11-18T08:18:31;8.80;99.90
20698;DHT22;10508;50.956;4.640;2022-11-18T08:21:03;8.80;99.90
20698;DHT22;10508;50.956;4.640;2022-11-18T08:23:29;8.80;99.90
20698;DHT22;10508;50.956;4.640;2022-11-18T08:26:01;8.80;99.90
20698;DHT22;10508;50.956;4.640;2022-11-18T08:28:28;8.80;99.90
20698;DHT22;10508;50.956;4.640;2022-11-18T08:30:53;8.80;99.90
20698;DHT22;10508;50.956;4.640;2022-11-18T08:33:19;8.80;99.90
20698;DHT22;10508;50.956;4.640;2022-11-18T08:35:44;8.90;99.90
20698;DHT22;10508;50.956;4.640;2022-11-18T08:38:10;9.00;99.90
20698;DHT22;10508;50.956;4.640;2022-11-18T08:40:36;9.00;99.90
20698;DHT22;10508;50.956;4.640;2022-11-18T08:43:01;9.00;99.90
20698;DHT22;10508;50.956;4.640;2022-11-18T08:45:45;9.00;99.90
20698;DHT22;10508;50.956;4.640;2022-11-18T08:48:11;9.00;99.90
20698;DHT22;10508;50.956;4.640;2022-11-18T08:50:37;9.00;99.90
20698;DHT22;10508;50.956;4.640;2022-11-18T08:53:03;9.10;99.90
20698;DHT22;10508;50.956;4.640;2022-11-18T08:55:29;9.20;99.90
20698;DHT22;10508;50.956;4.640;2022-11-18T08:57:55;9.20;99.90
20698;DHT22;10508;50.956;4.640;2022-11-18T09:00:20;9.30;99.90
20698;DHT22;10508;50.956;4.640;2022-11-18T09:02:46;9.30;99.90
20698;DHT22;10508;50.956;4.640;2022-11-18T09:05:12;9.20;99.90
20698;DHT22;10508;50.956;4.640;2022-11-18T09:07:37;9.30;99.90
20698;DHT22;10508;50.956;4.640;2022-11-18T09:10:03;9.30;99.90
20698;DHT22;10508;50.956;4.640;2022-11-18T09:12:29;9.30;99.90
20698;DHT22;10508;50.956;4.640;2022-11-18T09:14:55;9.40;99.90
20698;DHT22;10508;50.956;4.640;2022-11-18T09:17:20;9.40;99.90
20698;DHT22;10508;50.956;4.640;2022-11-18T09:19:46;9.40;99.90
20698;DHT22;10508;50.956;4.640;2022-11-18T09:22:11;9.40;99.90
20698;DHT22;10508;50.956;4.640;2022-11-18T09:24:56;9.50;99.90
20698;DHT22;10508;50.956;4.640;2022-11-18T09:27:21;9.60;99.90
20698;DHT22;10508;50.956;4.640;2022-11-18T09:29:47;9.60;99.90
20698;DHT22;10508;50.956;4.640;2022-11-18T09:32:12;9.60;99.90
20698;DHT22;10508;50.956;4.640;2022-11-18T09:34:38;9.60;99.90
20698;DHT22;10508;50.956;4.640;2022-11-18T09:37:04;9.70;99.90
20698;DHT22;10508;50.956;4.640;2022-11-18T09:39:33;9.80;99.90
20698;DHT22;10508;50.956;4.640;2022-11-18T09:44:48;9.90;99.90
20698;DHT22;10508;50.956;4.640;2022-11-18T09:47:29;9.90;99.90
20698;DHT22;10508;50.956;4.640;2022-11-18T09:49:57;9.90;99.90
20698;DHT22;10508;50.956;4.640;2022-11-18T09:52:39;10.00;99.90
20698;DHT22;10508;50.956;4.640;2022-11-18T09:55:13;10.10;99.90
20698;DHT22;10508;50.956;4.640;2022-11-18T09:57:44;10.00;99.90
20698;DHT22;10508;50.956;4.640;2022-11-18T10:00:17;10.10;99.90
20698;DHT22;10508;50.956;4.640;2022-11-18T10:02:59;10.10;99.90
20698;DHT22;10508;50.956;4.640;2022-11-18T10:08:20;10.20;99.90
20698;DHT22;10508;50.956;4.640;2022-11-18T10:11:09;10.20;99.90
20698;DHT22;10508;50.956;4.640;2022-11-18T10:19:51;10.30;99.90
20698;DHT22;10508;50.956;4.640;2022-11-18T10:22:29;10.30;99.90
20698;DHT22;10508;50.956;4.640;2022-11-18T10:24:56;10.30;99.90
20698;DHT22;10508;50.956;4.640;2022-11-18T10:27:33;10.40;99.90
20698;DHT22;10508;50.956;4.640;2022-11-18T10:30:00;10.40;99.90
20698;DHT22;10508;50.956;4.640;2022-11-18T10:32:26;10.40;99.90
20698;DHT22;10508;50.956;4.640;2022-11-18T10:34:56;10.50;99.90
20698;DHT22;10508;50.956;4.640;2022-11-18T10:39:59;10.60;99.90
20698;DHT22;10508;50.956;4.640;2022-11-18T10:42:39;10.60;99.90
20698;DHT22;10508;50.956;4.640;2022-11-18T10:45:29;10.60;99.90
20698;DHT22;10508;50.956;4.640;2022-11-18T10:48:00;10.60;99.90
20698;DHT22;10508;50.956;4.640;2022-11-18T10:50:46;10.60;99.90
20698;DHT22;10508;50.956;4.640;2022-11-18T10:53:33;10.60;99.90
20698;DHT22;10508;50.956;4.640;2022-11-18T10:56:00;10.70;99.90
20698;DHT22;10508;50.956;4.640;2022-11-18T11:03:41;10.70;99.90
20698;DHT22;10508;50.956;4.640;2022-11-18T11:08:52;10.80;99.90
20698;DHT22;10508;50.956;4.640;2022-11-18T11:13:53;10.80;99.90
20698;DHT22;10508;50.956;4.640;2022-11-18T11:16:20;10.90;99.90
20698;DHT22;10508;50.956;4.640;2022-11-18T11:18:52;10.90;99.90
20698;DHT22;10508;50.956;4.640;2022-11-18T11:21:20;10.90;99.90
20698;DHT22;10508;50.956;4.640;2022-11-18T11:24:11;11.00;99.90
20698;DHT22;10508;50.956;4.640;2022-11-18T11:26:50;11.00;99.90
20698;DHT22;10508;50.956;4.640;2022-11-18T11:32:07;11.00;99.90
20698;DHT22;10508;50.956;4.640;2022-11-18T11:34:48;11.00;99.90
20698;DHT22;10508;50.956;4.640;2022-11-18T11:40:40;11.10;99.90
20698;DHT22;10508;50.956;4.640;2022-11-18T11:57:07;11.10;99.90
20698;DHT22;10508;50.956;4.640;2022-11-18T12:00:30;11.20;99.90
20698;DHT22;10508;50.956;4.640;2022-11-18T12:05:31;11.40;99.90
20698;DHT22;10508;50.956;4.640;2022-11-18T12:08:22;11.40;99.90
20698;DHT22;10508;50.956;4.640;2022-11-18T12:18:42;11.30;99.90
20698;DHT22;10508;50.956;4.640;2022-11-18T12:26:42;11.30;99.90
20698;DHT22;10508;50.956;4.640;2022-11-18T12:29:35;11.30;99.90
20698;DHT22;10508;50.956;4.640;2022-11-18T12:32:10;11.30;99.90
20698;DHT22;10508;50.956;4.640;2022-11-18T12:34:42;11.30;99.90
20698;DHT22;10508;50.956;4.640;2022-11-18T12:40:00;11.20;99.90
20698;DHT22;10508;50.956;4.640;2022-11-18T12:42:40;11.30;99.90
20698;DHT22;10508;50.956;4.640;2022-11-18T12:50:57;11.30;99.90
20698;DHT22;10508;50.956;4.640;2022-11-18T12:53:42;11.30;99.90
20698;DHT22;10508;50.956;4.640;2022-11-18T12:58:50;11.20;99.90
20698;DHT22;10508;50.956;4.640;2022-11-18T13:01:21;11.20;99.90
20698;DHT22;10508;50.956;4.640;2022-11-18T13:03:47;11.10;99.90
20698;DHT22;10508;50.956;4.640;2022-11-18T13:06:29;11.10;99.90
20698;DHT22;10508;50.956;4.640;2022-11-18T13:09:03;11.20;99.90
20698;DHT22;10508;50.956;4.640;2022-11-18T13:11:31;11.10;99.90
20698;DHT22;10508;50.956;4.640;2022-11-18T13:14:32;11.00;99.90
20698;DHT22;10508;50.956;4.640;2022-11-18T13:20:31;11.00;99.90
20698;DHT22;10508;50.956;4.640;2022-11-18T13:25:53;10.90;99.90
20698;DHT22;10508;50.956;4.640;2022-11-18T13:28:45;10.80;99.90
20698;DHT22;10508;50.956;4.640;2022-11-18T13:34:15;10.80;99.90
20698;DHT22;10508;50.956;4.640;2022-11-18T13:36:44;10.80;99.90
20698;DHT22;10508;50.956;4.640;2022-11-18T13:39:36;10.80;99.90
20698;DHT22;10508;50.956;4.640;2022-11-18T13:42:23;10.80;99.90
20698;DHT22;10508;50.956;4.640;2022-11-18T13:45:00;10.70;99.90
20698;DHT22;10508;50.956;4.640;2022-11-18T13:50:22;10.70;99.90
20698;DHT22;10508;50.956;4.640;2022-11-18T13:55:34;10.70;99.90
20698;DHT22;10508;50.956;4.640;2022-11-18T13:58:10;10.70;99.90
20698;DHT22;10508;50.956;4.640;2022-11-18T14:01:06;10.60;99.90
20698;DHT22;10508;50.956;4.640;2022-11-18T14:04:01;10.70;99.90
20698;DHT22;10508;50.956;4.640;2022-11-18T14:06:34;10.70;99.90
20698;DHT22;10508;50.956;4.640;2022-11-18T14:11:38;10.80;99.90
20698;DHT22;10508;50.956;4.640;2022-11-18T14:14:04;10.70;99.90
20698;DHT22;10508;50.956;4.640;2022-11-18T14:16:41;10.60;99.90
20698;DHT22;10508;50.956;4.640;2022-11-18T14:19:30;10.60;99.90
20698;DHT22;10508;50.956;4.640;2022-11-18T14:22:12;10.70;99.90
20698;DHT22;10508;50.956;4.640;2022-11-18T14:24:40;10.70;99.90
20698;DHT22;10508;50.956;4.640;2022-11-18T14:27:35;10.70;99.90
20698;DHT22;10508;50.956;4.640;2022-11-18T14:35:30;10.70;99.90
20698;DHT22;10508;50.956;4.640;2022-11-18T14:37:56;10.70;99.90
20698;DHT22;10508;50.956;4.640;2022-11-18T14:40:22;10.70;99.90
20698;DHT22;10508;50.956;4.640;2022-11-18T14:42:47;10.70;99.90
20698;DHT22;10508;50.956;4.640;2022-11-18T14:45:13;10.70;99.90
20698;DHT22;10508;50.956;4.640;2022-11-18T14:47:39;10.80;99.90
20698;DHT22;10508;50.956;4.640;2022-11-18T14:50:12;10.70;99.90
20698;DHT22;10508;50.956;4.640;2022-11-18T14:52:38;10.70;99.90
20698;DHT22;10508;50.956;4.640;2022-11-18T14:55:04;10.80;99.90
20698;DHT22;10508;50.956;4.640;2022-11-18T14:57:29;10.80;99.90
20698;DHT22;10508;50.956;4.640;2022-11-18T14:59:55;10.80;99.90
20698;DHT22;10508;50.956;4.640;2022-11-18T15:02:21;10.80;99.90
20698;DHT22;10508;50.956;4.640;2022-11-18T15:04:46;10.70;99.90
20698;DHT22;10508;50.956;4.640;2022-11-18T15:07:14;10.70;99.90
20698;DHT22;10508;50.956;4.640;2022-11-18T15:09:40;10.70;99.90
20698;DHT22;10508;50.956;4.640;2022-11-18T15:12:06;10.70;99.90
20698;DHT22;10508;50.956;4.640;2022-11-18T15:14:31;10.70;99.90
20698;DHT22;10508;50.956;4.640;2022-11-18T15:16:59;10.70;99.90
20698;DHT22;10508;50.956;4.640;2022-11-18T15:19:24;10.60;99.90
20698;DHT22;10508;50.956;4.640;2022-11-18T15:21:50;10.60;99.90
20698;DHT22;10508;50.956;4.640;2022-11-18T15:24:16;10.60;99.90
20698;DHT22;10508;50.956;4.640;2022-11-18T15:26:43;10.50;99.90
20698;DHT22;10508;50.956;4.640;2022-11-18T15:29:23;10.70;99.90
20698;DHT22;10508;50.956;4.640;2022-11-18T15:31:50;10.70;99.90
20698;DHT22;10508;50.956;4.640;2022-11-18T15:34:17;10.60;99.90
20698;DHT22;10508;50.956;4.640;2022-11-18T15:36:44;10.70;99.90
20698;DHT22;10508;50.956;4.640;2022-11-18T15:39:10;10.60;99.90
20698;DHT22;10508;50.956;4.640;2022-11-18T15:41:37;10.60;99.90
20698;DHT22;10508;50.956;4.640;2022-11-18T15:44:03;10.60;99.90
20698;DHT22;10508;50.956;4.640;2022-11-18T15:46:30;10.50;99.90
20698;DHT22;10508;50.956;4.640;2022-11-18T15:48:58;10.50;99.90
20698;DHT22;10508;50.956;4.640;2022-11-18T15:51:26;10.50;99.90
20698;DHT22;10508;50.956;4.640;2022-11-18T15:53:53;10.50;99.90
20698;DHT22;10508;50.956;4.640;2022-11-18T16:01:33;10.50;99.90
20698;DHT22;10508;50.956;4.640;2022-11-18T16:04:00;10.50;99.90
20698;DHT22;10508;50.956;4.640;2022-11-18T16:06:26;10.50;99.90
20698;DHT22;10508;50.956;4.640;2022-11-18T16:08:52;10.60;99.90
20698;DHT22;10508;50.956;4.640;2022-11-18T16:11:18;10.60;99.90
20698;DHT22;10508;50.956;4.640;2022-11-18T16:14:08;10.70;99.90
20698;DHT22;10508;50.956;4.640;2022-11-18T16:16:34;10.60;99.90
20698;DHT22;10508;50.956;4.640;2022-11-18T16:19:03;10.60;99.90
20698;DHT22;10508;50.956;4.640;2022-11-18T16:21:31;10.50;99.90
20698;DHT22;10508;50.956;4.640;2022-11-18T16:24:18;10.50;99.90
20698;DHT22;10508;50.956;4.640;2022-11-18T16:26:44;10.60;99.90
20698;DHT22;10508;50.956;4.640;2022-11-18T16:29:10;10.50;99.90
20698;DHT22;10508;50.956;4.640;2022-11-18T16:31:36;10.40;99.90
20698;DHT22;10508;50.956;4.640;2022-11-18T16:34:10;10.40;99.90
20698;DHT22;10508;50.956;4.640;2022-11-18T16:36:38;10.40;99.90
20698;DHT22;10508;50.956;4.640;2022-11-18T16:39:15;10.40;99.90
20698;DHT22;10508;50.956;4.640;2022-11-18T16:41:42;10.30;99.90
20698;DHT22;10508;50.956;4.640;2022-11-18T16:44:18;10.30;99.90
20698;DHT22;10508;50.956;4.640;2022-11-18T16:46:52;10.40;99.90
20698;DHT22;10508;50.956;4.640;2022-11-18T16:49:20;10.40;99.90
20698;DHT22;10508;50.956;4.640;2022-11-18T16:51:48;10.40;99.90
20698;DHT22;10508;50.956;4.640;2022-11-18T16:54:25;10.40;99.90
20698;DHT22;10508;50.956;4.640;2022-11-18T16:56:52;10.30;99.90
20698;DHT22;10508;50.956;4.640;2022-11-18T16:59:20;10.30;99.90
20698;DHT22;10508;50.956;4.640;2022-11-18T17:01:47;10.30;99.90
20698;DHT22;10508;50.956;4.640;2022-11-18T17:04:13;10.30;99.90
20698;DHT22;10508;50.956;4.640;2022-11-18T17:06:39;10.30;99.90
20698;DHT22;10508;50.956;4.640;2022-11-18T17:09:06;10.30;99.90
20698;DHT22;10508;50.956;4.640;2022-11-18T17:11:33;10.30;99.90
20698;DHT22;10508;50.956;4.640;2022-11-18T17:13:58;10.30;99.90
20698;DHT22;10508;50.956;4.640;2022-11-18T17:16:24;10.30;99.90
20698;DHT22;10508;50.956;4.640;2022-11-18T17:18:58;10.20;99.90
20698;DHT22;10508;50.956;4.640;2022-11-18T17:21:25;10.30;99.90
20698;DHT22;10508;50.956;4.640;2022-11-18T17:23:51;10.20;99.90
20698;DHT22;10508;50.956;4.640;2022-11-18T17:26:19;10.20;99.90
20698;DHT22;10508;50.956;4.640;2022-11-18T17:28:45;10.20;99.90
20698;DHT22;10508;50.956;4.640;2022-11-18T17:31:13;10.30;99.90
20698;DHT22;10508;50.956;4.640;2022-11-18T17:33:39;10.20;99.90
20698;DHT22;10508;50.956;4.640;2022-11-18T17:36:07;10.20;99.90
20698;DHT22;10508;50.956;4.640;2022-11-18T17:38:34;10.20;99.90
20698;DHT22;10508;50.956;4.640;2022-11-18T17:41:00;10.20;99.90
20698;DHT22;10508;50.956;4.640;2022-11-18T17:43:27;10.20;99.90
20698;DHT22;10508;50.956;4.640;2022-11-18T17:45:54;10.10;99.90
20698;DHT22;10508;50.956;4.640;2022-11-18T17:48:22;10.20;99.90
20698;DHT22;10508;50.956;4.640;2022-11-18T17:50:47;10.20;99.90
20698;DHT22;10508;50.956;4.640;2022-11-18T17:53:13;10.10;99.90
20698;DHT22;10508;50.956;4.640;2022-11-18T17:55:40;10.20;99.90
20698;DHT22;10508;50.956;4.640;2022-11-18T17:58:06;10.20;99.90
20698;DHT22;10508;50.956;4.640;2022-11-18T18:00:32;10.20;99.90
20698;DHT22;10508;50.956;4.640;2022-11-18T18:02:59;10.10;99.90
20698;DHT22;10508;50.956;4.640;2022-11-18T18:05:25;10.10;99.90
20698;DHT22;10508;50.956;4.640;2022-11-18T18:07:51;10.20;99.90
20698;DHT22;10508;50.956;4.640;2022-11-18T18:10:17;10.10;99.90